createdAt,value
2023-04-03T00:02:16.844Z,9.68
2023-04-03T00:04:50.205Z,9.66
2023-04-03T00:07:23.271Z,9.69
2023-04-03T00:09:56.281Z,9.76
2023-04-03T00:12:29.214Z,9.72
2023-04-03T00:15:01.988Z,9.73
2023-04-03T00:17:34.975Z,9.77
2023-04-03T00:20:08.877Z,9.74
2023-04-03T00:22:42.320Z,9.69
2023-04-03T00:25:15.633Z,9.68
2023-04-03T00:27:48.784Z,9.81
2023-04-03T00:30:23.616Z,9.74
2023-04-03T00:32:57.349Z,9.70
2023-04-03T00:35:31.106Z,9.68
2023-04-03T00:38:04.592Z,9.62
2023-04-03T00:40:44.654Z,9.64
2023-04-03T00:43:23.684Z,9.62
2023-04-03T00:45:58.340Z,9.63
2023-04-03T00:48:41.789Z,9.66
2023-04-03T00:51:22.720Z,9.57
2023-04-03T00:54:01.717Z,9.50
2023-04-03T00:56:35.419Z,9.44
2023-04-03T00:59:26.901Z,9.33
2023-04-03T01:02:02.804Z,9.36
2023-04-03T01:04:38.273Z,9.37
2023-04-03T01:07:12.683Z,9.30
2023-04-03T01:09:47.823Z,9.38
2023-04-03T01:12:23.578Z,9.39
2023-04-03T01:14:59.206Z,9.41
2023-04-03T01:17:43.910Z,9.47
2023-04-03T01:20:31.690Z,9.51
2023-04-03T01:23:14.050Z,9.53
2023-04-03T01:25:49.037Z,9.49
2023-04-03T01:28:32.956Z,9.47
2023-04-03T01:31:25.237Z,9.48
2023-04-03T01:34:00.907Z,9.46
2023-04-03T01:36:35.835Z,9.49
2023-04-03T01:39:10.030Z,9.49
2023-04-03T01:41:43.621Z,9.54
2023-04-03T01:44:25.307Z,9.45
2023-04-03T01:46:58.744Z,9.49
2023-04-03T01:49:32.965Z,9.51
2023-04-03T01:52:06.602Z,9.44
2023-04-03T01:54:39.494Z,9.42
2023-04-03T01:57:13.179Z,9.38
2023-04-03T01:59:46.814Z,9.26
2023-04-03T02:02:21.731Z,9.15
2023-04-03T02:04:56.384Z,9.06
2023-04-03T02:07:29.650Z,9.08
2023-04-03T02:10:03.054Z,8.98
2023-04-03T02:12:36.479Z,9.02
2023-04-03T02:15:10.320Z,9.02
2023-04-03T02:17:43.294Z,9.11
2023-04-03T02:20:16.422Z,9.05
2023-04-03T02:22:50.444Z,9.03
2023-04-03T02:25:23.291Z,8.97
2023-04-03T02:27:57.347Z,8.86
2023-04-03T02:30:30.839Z,8.97
2023-04-03T02:33:04.522Z,8.88
2023-04-03T02:35:38.607Z,8.93
2023-04-03T02:38:12.613Z,8.87
2023-04-03T02:40:46.391Z,8.94
2023-04-03T02:43:19.919Z,8.91
2023-04-03T02:45:53.202Z,8.90
2023-04-03T02:48:27.187Z,8.77
2023-04-03T02:51:00.676Z,8.95
2023-04-03T02:53:34.093Z,8.96
2023-04-03T02:56:13.912Z,8.80
2023-04-03T02:58:47.516Z,8.85
2023-04-03T03:01:22.404Z,8.81
2023-04-03T03:03:55.854Z,8.89
2023-04-03T03:06:30.050Z,8.94
2023-04-03T03:09:03.185Z,8.96
2023-04-03T03:11:36.374Z,8.92
2023-04-03T03:14:09.721Z,8.89
2023-04-03T03:16:43.041Z,8.97
2023-04-03T03:19:16.504Z,8.81
2023-04-03T03:21:49.892Z,8.75
2023-04-03T03:24:23.314Z,8.78
2023-04-03T03:26:56.479Z,8.70
2023-04-03T03:29:30.031Z,8.57
2023-04-03T03:32:04.291Z,8.64
2023-04-03T03:34:37.621Z,8.50
2023-04-03T03:37:12.342Z,8.55
2023-04-03T03:39:45.817Z,8.52
2023-04-03T03:42:18.774Z,8.42
2023-04-03T03:44:53.182Z,8.32
2023-04-03T03:47:26.887Z,8.43
2023-04-03T03:49:59.616Z,8.52
2023-04-03T03:52:32.565Z,8.42
2023-04-03T03:55:06.024Z,8.43
2023-04-03T03:57:39.676Z,8.44
2023-04-03T04:00:13.849Z,8.40
2023-04-03T04:02:51.483Z,8.54
2023-04-03T04:05:26.416Z,8.43
2023-04-03T04:07:59.581Z,8.32
2023-04-03T04:10:33.659Z,8.25
2023-04-03T04:13:07.145Z,8.33
2023-04-03T04:15:41.226Z,8.29
2023-04-03T04:18:14.779Z,8.30
2023-04-03T04:20:52.226Z,8.36
2023-04-03T04:23:26.419Z,8.37
2023-04-03T04:25:59.739Z,8.26
2023-04-03T04:28:33.292Z,8.24
2023-04-03T04:31:07.190Z,8.15
2023-04-03T04:33:40.764Z,8.20
2023-04-03T04:36:16.333Z,8.23
2023-04-03T04:38:55.441Z,8.29
2023-04-03T04:41:29.980Z,8.14
2023-04-03T04:44:03.041Z,8.13
2023-04-03T04:46:36.508Z,8.18
2023-04-03T04:49:11.174Z,8.09
2023-04-03T04:51:51.931Z,8.06
2023-04-03T04:54:31.229Z,8.28
2023-04-03T04:57:05.017Z,8.34
2023-04-03T04:59:39.215Z,8.41
2023-04-03T05:02:14.249Z,8.53
2023-04-03T05:04:51.730Z,8.63
2023-04-03T05:07:28.288Z,8.63
2023-04-03T05:10:03.409Z,8.73
2023-04-03T05:12:37.418Z,8.83
2023-04-03T05:15:11.993Z,8.76
2023-04-03T05:17:46.152Z,8.75
2023-04-03T05:20:21.103Z,8.79
2023-04-03T05:22:55.764Z,8.78
2023-04-03T05:25:29.911Z,8.83
2023-04-03T05:28:04.291Z,8.94
2023-04-03T05:30:38.336Z,8.83
2023-04-03T05:33:12.568Z,8.91
2023-04-03T05:35:57.654Z,8.90
2023-04-03T05:38:36.388Z,8.78
2023-04-03T05:41:09.887Z,8.78
2023-04-03T05:43:43.914Z,8.78
2023-04-03T05:46:19.940Z,8.87
2023-04-03T05:48:56.090Z,8.85
2023-04-03T05:51:39.098Z,8.91
2023-04-03T05:54:29.954Z,8.94
2023-04-03T05:57:25.484Z,8.86
2023-04-03T06:00:00.652Z,8.98
2023-04-03T06:02:34.468Z,9.03
2023-04-03T06:05:10.053Z,9.17
2023-04-03T06:07:44.992Z,9.29
2023-04-03T06:10:19.076Z,9.33
2023-04-03T06:12:53.484Z,9.39
2023-04-03T06:15:27.326Z,9.43
2023-04-03T06:18:01.260Z,9.51
2023-04-03T06:20:35.572Z,9.52
2023-04-03T06:23:10.130Z,9.57
2023-04-03T06:25:43.895Z,9.55
2023-04-03T06:28:18.162Z,9.64
2023-04-03T06:30:52.041Z,9.65
2023-04-03T06:33:25.398Z,9.65
2023-04-03T06:36:03.049Z,9.59
2023-04-03T06:38:37.726Z,9.53
2023-04-03T06:41:10.882Z,9.51
2023-04-03T06:43:45.060Z,9.49
2023-04-03T06:46:21.649Z,9.32
2023-04-03T06:48:55.601Z,9.45
2023-04-03T06:51:32.002Z,9.54
2023-04-03T06:54:07.820Z,9.69
2023-04-03T06:56:41.090Z,9.99
2023-04-03T06:59:16.232Z,10.17
2023-04-03T07:01:50.885Z,10.25
2023-04-03T07:04:24.338Z,10.50
2023-04-03T07:06:57.437Z,10.35
2023-04-03T07:09:31.294Z,10.54
2023-04-03T07:12:05.032Z,10.57
2023-04-03T07:14:39.040Z,10.54
2023-04-03T07:17:12.693Z,10.66
2023-04-03T07:19:46.357Z,10.74
2023-04-03T07:22:20.886Z,10.92
2023-04-03T07:24:54.820Z,10.95
2023-04-03T07:27:28.524Z,11.04
2023-04-03T07:30:02.452Z,11.08
2023-04-03T07:32:35.939Z,11.22
2023-04-03T07:35:10.657Z,11.25
2023-04-03T07:37:44.598Z,11.38
2023-04-03T07:40:19.607Z,11.54
2023-04-03T07:42:52.913Z,11.58
2023-04-03T07:45:26.778Z,11.43
2023-04-03T07:47:59.990Z,11.48
2023-04-03T07:50:33.868Z,11.44
2023-04-03T07:53:07.232Z,11.52
2023-04-03T07:55:45.073Z,11.50
2023-04-03T07:58:20.408Z,11.70
2023-04-03T08:00:53.485Z,11.90
2023-04-03T08:03:26.961Z,11.65
2023-04-03T08:06:09.162Z,11.32
2023-04-03T08:08:47.327Z,11.31
2023-04-03T08:11:22.329Z,11.58
2023-04-03T08:13:55.615Z,11.57
2023-04-03T08:16:29.539Z,11.58
2023-04-03T08:19:03.902Z,11.69
2023-04-03T08:21:39.618Z,11.89
2023-04-03T08:24:13.016Z,12.00
2023-04-03T08:26:46.235Z,11.62
2023-04-03T08:29:19.300Z,11.72
2023-04-03T08:31:52.580Z,11.57
2023-04-03T08:34:25.677Z,11.51
2023-04-03T08:36:59.133Z,11.25
2023-04-03T08:39:34.056Z,11.35
2023-04-03T08:42:19.147Z,11.45
2023-04-03T08:45:01.916Z,11.27
2023-04-03T08:48:03.849Z,11.33
2023-04-03T08:50:58.126Z,11.65
2023-04-03T08:53:36.858Z,12.00
2023-04-03T08:56:14.396Z,11.63
2023-04-03T08:58:59.831Z,12.16
2023-04-03T09:01:43.258Z,12.33
2023-04-03T09:04:21.412Z,12.68
2023-04-03T09:07:09.424Z,12.88
2023-04-03T09:09:45.966Z,12.77
2023-04-03T09:12:31.716Z,12.85
2023-04-03T09:15:13.755Z,12.47
2023-04-03T09:18:20.167Z,12.60
2023-04-03T09:21:22.919Z,12.62
2023-04-03T09:24:00.977Z,12.71
2023-04-03T09:27:07.232Z,12.81
2023-04-03T09:29:47.706Z,12.39
2023-04-03T09:32:31.778Z,12.60
2023-04-03T09:35:36.462Z,12.81
2023-04-03T09:38:24.088Z,12.63
2023-04-03T09:41:18.396Z,12.79
2023-04-03T09:43:57.812Z,12.57
2023-04-03T09:46:41.093Z,12.67
2023-04-03T09:49:16.478Z,12.70
2023-04-03T09:51:51.041Z,12.62
2023-04-03T09:54:38.855Z,12.72
2023-04-03T09:57:16.826Z,12.67
2023-04-03T10:00:07.673Z,12.56
2023-04-03T10:02:43.309Z,12.30
2023-04-03T10:05:42.707Z,12.24
2023-04-03T10:08:27.714Z,11.75
2023-04-03T10:11:17.134Z,11.87
2023-04-03T10:14:02.530Z,11.88
2023-04-03T10:16:50.742Z,11.78
2023-04-03T10:19:41.433Z,11.64
2023-04-03T10:22:29.917Z,11.64
2023-04-03T10:25:05.393Z,11.65
2023-04-03T10:28:07.134Z,11.76
2023-04-03T10:30:46.031Z,11.75
2023-04-03T10:33:42.729Z,11.81
2023-04-03T10:36:43.154Z,11.73
2023-04-03T10:39:32.511Z,11.68
2023-04-03T10:42:16.705Z,11.55
2023-04-03T10:45:22.266Z,11.21
2023-04-03T10:48:16.544Z,11.44
2023-04-03T10:51:04.063Z,11.30
2023-04-03T10:53:53.199Z,11.33
2023-04-03T10:56:57.973Z,11.72
2023-04-03T10:59:55.645Z,12.00
2023-04-03T11:02:35.243Z,12.02
2023-04-03T11:05:43.522Z,12.02
2023-04-03T11:08:41.168Z,12.21
2023-04-03T11:11:38.276Z,12.41
2023-04-03T11:14:36.554Z,12.31
2023-04-03T11:17:32.519Z,12.41
2023-04-03T11:20:29.631Z,12.27
2023-04-03T11:23:13.193Z,12.10
2023-04-03T11:25:47.174Z,11.53
2023-04-03T11:28:20.255Z,11.55
2023-04-03T11:30:53.711Z,11.64
2023-04-03T11:33:55.718Z,11.66
2023-04-03T11:36:39.492Z,11.91
2023-04-03T11:39:33.487Z,12.08
2023-04-03T11:42:43.046Z,11.89
2023-04-03T11:45:30.047Z,12.02
2023-04-03T11:48:13.359Z,11.91
2023-04-03T11:50:56.048Z,11.83
2023-04-03T11:53:33.920Z,12.01
2023-04-03T11:56:28.845Z,12.03
2023-04-03T11:59:19.932Z,11.96
2023-04-03T12:01:55.867Z,11.78
2023-04-03T12:04:31.948Z,12.12
2023-04-03T12:07:21.393Z,12.34
2023-04-03T12:09:54.069Z,12.47
2023-04-03T12:12:32.551Z,12.17
2023-04-03T12:15:55.036Z,12.08
2023-04-03T12:18:47.297Z,11.82
2023-04-03T12:21:23.078Z,11.88
2023-04-03T12:24:04.356Z,11.97
2023-04-03T12:27:04.437Z,11.88
2023-04-03T12:29:43.928Z,11.90
2023-04-03T12:32:40.013Z,11.84
2023-04-03T12:35:38.827Z,12.15
2023-04-03T12:38:42.114Z,12.13
2023-04-03T12:41:23.699Z,12.09
2023-04-03T12:44:33.786Z,12.22
2023-04-03T12:47:25.824Z,11.87
2023-04-03T12:50:00.307Z,11.91
2023-04-03T12:52:38.519Z,11.85
2023-04-03T12:55:19.337Z,11.69
2023-04-03T12:57:53.256Z,11.68
2023-04-03T13:00:40.811Z,11.53
2023-04-03T13:03:30.328Z,11.58
2023-04-03T13:06:05.452Z,11.87
2023-04-03T13:08:38.942Z,12.02
2023-04-03T13:11:16.216Z,11.61
2023-04-03T13:13:59.866Z,11.31
2023-04-03T13:16:33.305Z,11.04
2023-04-03T13:19:06.665Z,11.04
2023-04-03T13:21:40.331Z,10.93
2023-04-03T13:24:15.787Z,11.06
2023-04-03T13:26:50.141Z,10.98
2023-04-03T13:29:38.850Z,10.87
2023-04-03T13:32:27.058Z,10.97
2023-04-03T13:35:11.737Z,11.10
2023-04-03T13:38:03.608Z,11.00
2023-04-03T13:40:46.984Z,10.87
2023-04-03T13:43:28.861Z,10.77
2023-04-03T13:46:08.478Z,10.81
2023-04-03T13:48:50.789Z,10.67
2023-04-03T13:51:33.197Z,10.39
2023-04-03T13:54:36.742Z,10.41
2023-04-03T13:57:20.395Z,10.44
2023-04-03T13:59:54.598Z,10.27
2023-04-03T14:02:36.279Z,10.44
2023-04-03T14:05:11.269Z,10.51
2023-04-03T14:07:44.473Z,10.75
2023-04-03T14:10:17.402Z,10.77
2023-04-03T14:12:52.316Z,10.65
2023-04-03T14:15:31.521Z,10.42
2023-04-03T14:18:06.612Z,10.29
2023-04-03T14:20:41.359Z,10.55
2023-04-03T14:23:15.898Z,10.51
2023-04-03T14:25:49.056Z,10.52
2023-04-03T14:28:26.194Z,10.29
2023-04-03T14:30:59.990Z,10.00
2023-04-03T14:33:36.768Z,10.00
2023-04-03T14:36:15.912Z,10.27
2023-04-03T14:38:49.980Z,10.02
2023-04-03T14:41:26.353Z,9.86
2023-04-03T14:43:59.465Z,9.84
2023-04-03T14:46:55.653Z,9.88
2023-04-03T14:49:32.854Z,9.92
2023-04-03T14:52:05.933Z,10.06
2023-04-03T14:54:38.882Z,9.72
2023-04-03T14:57:15.848Z,9.73
2023-04-03T14:59:49.930Z,9.69
2023-04-03T15:02:32.649Z,9.68
2023-04-03T15:05:09.024Z,9.59
2023-04-03T15:07:52.306Z,9.63
2023-04-03T15:10:30.625Z,9.67
2023-04-03T15:13:04.494Z,9.35
2023-04-03T15:15:40.054Z,9.32
2023-04-03T15:18:24.278Z,9.46
2023-04-03T15:20:57.926Z,9.37
2023-04-03T15:23:31.512Z,9.47
2023-04-03T15:26:04.774Z,9.43
2023-04-03T15:28:41.036Z,9.22
2023-04-03T15:31:14.508Z,9.08
2023-04-03T15:33:48.231Z,8.95
2023-04-03T15:36:34.053Z,8.81
2023-04-03T15:39:09.388Z,8.86
2023-04-03T15:41:44.075Z,8.87
2023-04-03T15:44:19.082Z,8.80
2023-04-03T15:46:52.888Z,8.69
2023-04-03T15:49:26.656Z,8.52
2023-04-03T15:52:00.222Z,8.59
2023-04-03T15:54:33.673Z,8.49
2023-04-03T15:57:07.296Z,8.50
2023-04-03T15:59:41.047Z,8.31
2023-04-03T16:02:18.258Z,8.31
2023-04-03T16:04:51.568Z,8.41
2023-04-03T16:07:24.810Z,8.47
2023-04-03T16:09:58.075Z,8.42
2023-04-03T16:12:30.992Z,8.44
2023-04-03T16:15:04.345Z,8.36
2023-04-03T16:17:38.752Z,8.34
2023-04-03T16:20:14.405Z,8.33
2023-04-03T16:22:47.571Z,8.35
2023-04-03T16:25:22.096Z,8.18
2023-04-03T16:27:55.502Z,8.22
2023-04-03T16:30:29.581Z,8.22
2023-04-03T16:33:03.013Z,8.24
2023-04-03T16:35:36.715Z,8.10
2023-04-03T16:38:10.618Z,8.04
2023-04-03T16:40:43.619Z,7.98
2023-04-03T16:43:16.919Z,7.86
2023-04-03T16:45:50.277Z,7.88
2023-04-03T16:48:23.241Z,7.72
2023-04-03T16:50:56.118Z,7.65
2023-04-03T16:53:29.609Z,7.69
2023-04-03T16:56:03.104Z,7.61
2023-04-03T16:58:36.850Z,7.56
2023-04-03T17:01:21.877Z,7.50
2023-04-03T17:03:55.375Z,7.53
2023-04-03T17:06:28.591Z,7.51
2023-04-03T17:09:01.631Z,7.65
2023-04-03T17:14:09.530Z,7.52
2023-04-03T17:16:42.813Z,7.57
2023-04-03T17:19:18.432Z,7.59
2023-04-03T17:21:52.022Z,7.60
2023-04-03T17:24:25.627Z,7.38
2023-04-03T17:26:59.322Z,7.28
2023-04-03T17:29:32.834Z,7.22
2023-04-03T17:32:06.234Z,7.24
2023-04-03T17:34:40.441Z,7.21
2023-04-03T17:37:14.020Z,7.10
2023-04-03T17:39:47.740Z,6.91
2023-04-03T17:42:21.850Z,6.96
2023-04-03T17:44:54.791Z,7.01
2023-04-03T17:47:28.403Z,6.93
2023-04-03T17:50:01.803Z,6.93
2023-04-03T17:52:35.128Z,6.92
2023-04-03T17:55:08.934Z,6.90
2023-04-03T17:57:42.751Z,6.83
2023-04-03T18:00:17.256Z,6.60
2023-04-03T18:02:54.165Z,6.61
2023-04-03T18:05:31.871Z,6.64
2023-04-03T18:08:05.797Z,6.73
2023-04-03T18:10:40.535Z,6.63
2023-04-03T18:13:15.306Z,6.40
2023-04-03T18:15:49.670Z,6.49
2023-04-03T18:18:22.984Z,6.56
2023-04-03T18:20:56.535Z,6.50
2023-04-03T18:23:33.514Z,6.60
2023-04-03T18:26:09.284Z,6.58
2023-04-03T18:28:45.310Z,6.67
2023-04-03T18:31:21.041Z,6.76
2023-04-03T18:33:56.566Z,6.77
2023-04-03T18:36:30.849Z,6.75
2023-04-03T18:39:04.662Z,6.74
2023-04-03T18:41:40.402Z,6.75
2023-04-03T18:44:17.019Z,6.77
2023-04-03T18:47:04.868Z,6.72
2023-04-03T18:49:41.416Z,6.60
2023-04-03T18:52:14.658Z,6.65
2023-04-03T18:54:47.932Z,6.60
2023-04-03T18:57:23.801Z,6.56
2023-04-03T18:59:57.676Z,6.51
2023-04-03T19:02:31.425Z,6.51
2023-04-03T19:05:05.185Z,6.51
2023-04-03T19:07:39.490Z,6.48
2023-04-03T19:10:18.144Z,6.60
2023-04-03T19:12:53.065Z,6.60
2023-04-03T19:15:28.319Z,6.52
2023-04-03T19:18:01.974Z,6.32
2023-04-03T19:20:37.371Z,6.36
2023-04-03T19:23:13.190Z,6.23
2023-04-03T19:25:46.040Z,6.19
2023-04-03T19:28:19.114Z,6.16
2023-04-03T19:30:53.738Z,6.13
2023-04-03T19:33:27.688Z,6.16
2023-04-03T19:36:01.705Z,5.97
2023-04-03T19:38:35.387Z,5.81
2023-04-03T19:41:12.118Z,6.01
2023-04-03T19:43:46.123Z,6.06
2023-04-03T19:46:24.590Z,6.00
2023-04-03T19:48:58.378Z,5.95
2023-04-03T19:51:31.647Z,5.92
2023-04-03T19:54:06.423Z,5.82
2023-04-03T19:56:39.187Z,5.87
2023-04-03T19:59:12.331Z,5.82
2023-04-03T20:01:46.857Z,5.66
2023-04-03T20:04:20.262Z,5.70
2023-04-03T20:06:54.255Z,5.64
2023-04-03T20:09:28.598Z,5.68
2023-04-03T20:12:03.806Z,5.54
2023-04-03T20:14:38.259Z,5.60
2023-04-03T20:17:11.844Z,5.47
2023-04-03T20:19:45.489Z,5.54
2023-04-03T20:22:18.995Z,5.35
2023-04-03T20:24:53.186Z,5.36
2023-04-03T20:27:27.778Z,5.41
2023-04-03T20:30:03.618Z,5.39
2023-04-03T20:32:37.814Z,5.37
2023-04-03T20:35:11.644Z,5.38
2023-04-03T20:37:44.981Z,5.34
2023-04-03T20:40:18.917Z,5.29
2023-04-03T20:42:52.861Z,5.42
2023-04-03T20:45:26.536Z,5.32
2023-04-03T20:48:00.988Z,5.43
2023-04-03T20:50:34.761Z,5.48
2023-04-03T20:53:08.525Z,5.48
2023-04-03T20:55:42.622Z,5.39
2023-04-03T20:58:16.226Z,5.14
2023-04-03T21:00:49.912Z,5.18
2023-04-03T21:03:23.327Z,5.04
2023-04-03T21:06:04.755Z,4.84
2023-04-03T21:09:13.360Z,4.85
2023-04-03T21:12:22.052Z,4.76
2023-04-03T21:15:30.486Z,4.68
2023-04-03T21:18:30.674Z,4.68
2023-04-03T21:21:05.488Z,4.69
2023-04-03T21:23:38.456Z,4.77
2023-04-03T21:26:14.080Z,4.77
2023-04-03T21:28:48.298Z,4.82
2023-04-03T21:31:23.078Z,4.70
2023-04-03T21:33:56.825Z,4.79
2023-04-03T21:36:30.285Z,4.57
2023-04-03T21:39:04.026Z,4.73
2023-04-03T21:41:37.565Z,4.62
2023-04-03T21:44:11.000Z,4.55
2023-04-03T21:46:44.235Z,4.46
2023-04-03T21:49:17.948Z,4.55
2023-04-03T21:51:52.162Z,4.58
2023-04-03T21:54:26.680Z,4.35
2023-04-03T21:56:59.862Z,4.51
2023-04-03T21:59:34.509Z,4.54
2023-04-03T22:02:08.362Z,4.40
2023-04-03T22:04:41.738Z,4.53
2023-04-03T22:07:20.626Z,4.61
2023-04-03T22:09:54.316Z,4.58
2023-04-03T22:12:30.320Z,4.48
2023-04-03T22:15:04.995Z,4.58
2023-04-03T22:17:38.758Z,4.54
2023-04-03T22:20:13.349Z,4.59
2023-04-03T22:22:46.842Z,4.41
2023-04-03T22:25:20.440Z,4.39
2023-04-03T22:27:53.818Z,4.30
2023-04-03T22:30:27.827Z,4.29
2023-04-03T22:33:01.632Z,4.21
2023-04-03T22:35:34.627Z,4.30
2023-04-03T22:38:07.379Z,4.35
2023-04-03T22:40:40.767Z,4.29
2023-04-03T22:43:13.846Z,4.34
2023-04-03T22:45:55.413Z,4.23
2023-04-03T22:48:29.187Z,4.13
2023-04-03T22:51:02.804Z,4.29
2023-04-03T22:53:36.164Z,4.24
2023-04-03T22:56:11.568Z,4.21
2023-04-03T22:58:45.203Z,4.29
2023-04-03T23:01:20.246Z,4.21
2023-04-03T23:03:54.714Z,4.14
2023-04-03T23:06:28.668Z,4.05
2023-04-03T23:09:02.202Z,4.10
2023-04-03T23:11:35.479Z,4.13
2023-04-03T23:14:09.102Z,4.19
2023-04-03T23:16:43.388Z,4.16
2023-04-03T23:19:17.092Z,4.18
2023-04-03T23:21:50.591Z,4.25
2023-04-03T23:24:23.816Z,4.24
2023-04-03T23:26:57.752Z,4.15
2023-04-03T23:29:31.278Z,4.09
2023-04-03T23:32:04.221Z,4.12
2023-04-03T23:34:36.847Z,4.16
2023-04-03T23:37:13.390Z,4.08
2023-04-03T23:39:46.792Z,3.95
2023-04-03T23:42:20.005Z,4.07
2023-04-03T23:44:54.327Z,4.11
2023-04-03T23:47:28.297Z,4.14
2023-04-03T23:50:01.483Z,4.07
2023-04-03T23:52:34.750Z,4.00
2023-04-03T23:55:08.767Z,4.08
2023-04-03T23:57:43.791Z,4.14
